Time,TemperatureF,DewpointF,PressureIn,WindDirection,WindDirectionDegrees,WindSpeedMPH,WindSpeedGustMPH,Humidity,HourlyPrecipIn,Conditions,Clouds,dailyrainin,SolarRadiationWatts/m^2,SoftwareType,DateUTC
2013-04-18 00:32:00,24.0,23.0,-100.00,SW,234,3.0,5.0,94,0.00,,,0.00,0.000000,,2013-04-18 06:32:00,
2013-04-18 00:42:00,24.0,23.0,-100.00,SW,234,3.0,5.0,94,0.00,,,0.00,0.000000,,2013-04-18 06:42:00,
2013-04-18 00:52:00,24.0,23.0,-100.00,SW,234,3.0,5.0,94,0.00,,,0.00,0.000000,,2013-04-18 06:52:00,
2013-04-18 01:32:00,23.0,22.0,-100.00,SE,138,2.0,6.0,94,0.00,,,0.00,0.000000,,2013-04-18 07:32:00,
2013-04-18 01:42:00,23.0,22.0,-100.00,SE,138,2.0,6.0,94,0.00,,,0.00,0.000000,,2013-04-18 07:42:00,
2013-04-18 01:52:00,23.0,22.0,-100.00,SE,138,2.0,6.0,94,0.00,,,0.00,0.000000,,2013-04-18 07:52:00,
2013-04-18 02:32:00,22.0,21.0,-100.00,SSE,149,4.0,5.0,94,0.00,,,0.00,0.000000,,2013-04-18 08:32:00,
2013-04-18 02:42:00,22.0,21.0,-100.00,SSE,149,4.0,5.0,94,0.00,,,0.00,0.000000,,2013-04-18 08:42:00,
2013-04-18 02:52:00,22.0,21.0,-100.00,SSE,149,4.0,5.0,94,0.00,,,0.00,0.000000,,2013-04-18 08:52:00,
2013-04-18 03:22:00,21.0,19.0,-100.00,SE,136,4.0,5.0,93,0.00,,,0.00,0.000000,,2013-04-18 09:22:00,
2013-04-18 03:32:00,21.0,19.0,-100.00,SE,136,4.0,5.0,93,0.00,,,0.00,0.000000,,2013-04-18 09:32:00,
2013-04-18 03:42:00,21.0,19.0,-100.00,SE,136,4.0,5.0,93,0.00,,,0.00,0.000000,,2013-04-18 09:42:00,
2013-04-18 03:52:00,21.0,19.0,-100.00,SE,136,4.0,5.0,93,0.00,,,0.00,0.000000,,2013-04-18 09:52:00,
2013-04-18 04:32:00,20.0,18.0,-100.00,SE,137,5.0,6.0,92,0.00,,,0.00,0.000000,,2013-04-18 10:32:00,
2013-04-18 04:42:00,20.0,18.0,-100.00,SE,137,5.0,6.0,92,0.00,,,0.00,0.000000,,2013-04-18 10:42:00,
2013-04-18 04:52:00,20.0,18.0,-100.00,SE,137,5.0,6.0,92,0.00,,,0.00,0.000000,,2013-04-18 10:52:00,
2013-04-18 05:22:00,19.0,17.0,-100.00,SE,134,4.0,5.0,92,0.00,,,0.00,0.000000,,2013-04-18 11:22:00,
2013-04-18 05:32:00,19.0,17.0,-100.00,SE,134,4.0,5.0,92,0.00,,,0.00,0.000000,,2013-04-18 11:32:00,
2013-04-18 05:42:00,19.0,17.0,-100.00,SE,134,4.0,5.0,92,0.00,,,0.00,0.000000,,2013-04-18 11:42:00,
2013-04-18 05:52:00,19.0,17.0,-100.00,SE,134,4.0,5.0,92,0.00,,,0.00,0.000000,,2013-04-18 11:52:00,
2013-04-18 06:32:00,19.0,17.0,-100.00,SE,135,4.0,6.0,90,0.00,,,0.00,0.000000,,2013-04-18 12:32:00,
2013-04-18 06:42:00,19.0,17.0,-100.00,SE,135,4.0,6.0,90,0.00,,,0.00,0.000000,,2013-04-18 12:42:00,
2013-04-18 06:52:00,19.0,17.0,-100.00,SE,135,4.0,6.0,90,0.00,,,0.00,0.000000,,2013-04-18 12:52:00,
2013-04-18 07:32:00,19.0,16.0,-100.00,SE,136,5.0,6.0,89,0.00,,,0.00,13.000000,,2013-04-18 13:32:00,
2013-04-18 07:42:00,19.0,16.0,-100.00,SE,136,5.0,6.0,89,0.00,,,0.00,13.000000,,2013-04-18 13:42:00,
2013-04-18 07:52:00,19.0,16.0,-100.00,SE,136,5.0,6.0,89,0.00,,,0.00,13.000000,,2013-04-18 13:52:00,
2013-04-18 08:22:00,24.0,20.0,-100.00,SE,144,5.0,7.0,86,0.00,,,0.00,92.000000,,2013-04-18 14:22:00,
2013-04-18 08:32:00,24.0,20.0,-100.00,SE,144,5.0,7.0,86,0.00,,,0.00,92.000000,,2013-04-18 14:32:00,
2013-04-18 08:42:00,24.0,20.0,-100.00,SE,144,5.0,7.0,86,0.00,,,0.00,92.000000,,2013-04-18 14:42:00,
2013-04-18 08:52:00,24.0,20.0,-100.00,SE,144,5.0,7.0,86,0.00,,,0.00,92.000000,,2013-04-18 14:52:00,
2013-04-18 09:33:00,30.0,24.0,-100.00,SSE,155,5.0,7.0,79,0.01,,,0.01,168.000000,,2013-04-18 15:33:00,
2013-04-18 09:42:00,30.0,24.0,-100.00,SSE,155,5.0,7.0,79,0.01,,,0.01,168.000000,,2013-04-18 15:42:00,
2013-04-18 09:52:00,30.0,24.0,-100.00,SSE,155,5.0,7.0,79,0.01,,,0.01,168.000000,,2013-04-18 15:52:00,
2013-04-18 10:22:00,34.0,25.0,-100.00,WSW,247,5.0,9.0,69,0.00,,,0.01,521.000000,,2013-04-18 16:22:00,
2013-04-18 10:33:00,34.0,25.0,-100.00,WSW,247,5.0,9.0,69,0.00,,,0.01,521.000000,,2013-04-18 16:33:00,
2013-04-18 10:42:00,34.0,25.0,-100.00,WSW,247,5.0,9.0,69,0.00,,,0.01,521.000000,,2013-04-18 16:42:00,
2013-04-18 10:52:00,34.0,25.0,-100.00,WSW,247,5.0,9.0,69,0.00,,,0.01,521.000000,,2013-04-18 16:52:00,
2013-04-18 11:33:00,38.0,22.0,-100.00,WNW,289,8.0,13.0,51,0.00,,,0.01,725.000000,,2013-04-18 17:33:00,
2013-04-18 11:42:00,38.0,22.0,-100.00,WNW,289,8.0,13.0,51,0.00,,,0.01,725.000000,,2013-04-18 17:42:00,
2013-04-18 11:52:00,38.0,22.0,-100.00,WNW,289,8.0,13.0,51,0.00,,,0.01,725.000000,,2013-04-18 17:52:00,
2013-04-18 12:32:00,42.0,23.0,-100.00,NW,312,9.0,14.0,47,0.00,,,0.01,832.000000,,2013-04-18 18:32:00,
2013-04-18 12:42:00,42.0,23.0,-100.00,NW,312,9.0,14.0,47,0.00,,,0.01,832.000000,,2013-04-18 18:42:00,
2013-04-18 12:52:00,42.0,23.0,-100.00,NW,312,9.0,14.0,47,0.00,,,0.01,832.000000,,2013-04-18 18:52:00,
2013-04-18 13:32:00,45.0,23.0,-100.00,West,274,12.0,19.0,42,0.00,,,0.01,888.000000,,2013-04-18 19:32:00,
2013-04-18 13:42:00,45.0,23.0,-100.00,West,274,12.0,19.0,42,0.00,,,0.01,888.000000,,2013-04-18 19:42:00,
2013-04-18 13:52:00,45.0,23.0,-100.00,West,274,12.0,19.0,42,0.00,,,0.01,888.000000,,2013-04-18 19:52:00,
2013-04-18 14:22:00,49.0,21.0,-100.00,NW,310,13.0,25.0,33,0.00,,,0.01,865.000000,,2013-04-18 20:22:00,
2013-04-18 14:32:00,49.0,21.0,-100.00,NW,310,13.0,25.0,33,0.00,,,0.01,865.000000,,2013-04-18 20:32:00,
2013-04-18 14:42:00,49.0,21.0,-100.00,NW,310,13.0,25.0,33,0.00,,,0.01,865.000000,,2013-04-18 20:42:00,
2013-04-18 14:52:00,49.0,21.0,-100.00,NW,310,13.0,25.0,33,0.00,,,0.01,865.000000,,2013-04-18 20:52:00,
2013-04-18 15:22:00,49.0,19.0,-100.00,WNW,285,13.0,25.0,30,0.00,,,0.01,800.000000,,2013-04-18 21:22:00,
2013-04-18 15:32:00,49.0,19.0,-100.00,WNW,285,13.0,25.0,30,0.00,,,0.01,800.000000,,2013-04-18 21:32:00,
2013-04-18 15:43:00,49.0,19.0,-100.00,WNW,285,13.0,25.0,30,0.00,,,0.01,800.000000,,2013-04-18 21:43:00,
2013-04-18 15:52:00,49.0,19.0,-100.00,WNW,285,13.0,25.0,30,0.00,,,0.01,800.000000,,2013-04-18 21:52:00,
2013-04-18 16:22:00,54.0,20.0,-100.00,NW,312,11.0,21.0,26,0.00,,,0.01,530.000000,,2013-04-18 22:22:00,
2013-04-18 16:32:00,54.0,20.0,-100.00,NW,312,11.0,21.0,26,0.00,,,0.01,530.000000,,2013-04-18 22:32:00,
2013-04-18 16:42:00,54.0,20.0,-100.00,NW,312,11.0,21.0,26,0.00,,,0.01,530.000000,,2013-04-18 22:42:00,
2013-04-18 16:52:00,54.0,20.0,-100.00,NW,312,11.0,21.0,26,0.00,,,0.01,530.000000,,2013-04-18 22:52:00,
2013-04-18 17:32:00,53.0,17.0,-100.00,NW,318,14.0,24.0,24,0.00,,,0.01,391.000000,,2013-04-18 23:32:00,
2013-04-18 17:42:00,53.0,17.0,-100.00,NW,318,14.0,24.0,24,0.00,,,0.01,391.000000,,2013-04-18 23:42:00,
2013-04-18 17:52:00,53.0,17.0,-100.00,NW,318,14.0,24.0,24,0.00,,,0.01,391.000000,,2013-04-18 23:52:00,
2013-04-18 18:21:00,51.0,16.0,-100.00,NNW,337,10.0,24.0,25,0.00,,,0.01,217.000000,,2013-04-19 00:21:00,
2013-04-18 18:32:00,51.0,16.0,-100.00,NNW,337,10.0,24.0,25,0.00,,,0.01,217.000000,,2013-04-19 00:32:00,
2013-04-18 18:42:00,51.0,16.0,-100.00,NNW,337,10.0,24.0,25,0.00,,,0.01,217.000000,,2013-04-19 00:42:00,
2013-04-18 18:51:00,51.0,16.0,-100.00,NNW,337,10.0,24.0,25,0.00,,,0.01,217.000000,,2013-04-19 00:51:00,
2013-04-18 19:31:00,49.0,18.0,-100.00,NNW,331,8.0,16.0,29,0.00,,,-99.99,69.000000,,2013-04-19 01:31:00,
2013-04-18 19:42:00,49.0,18.0,-100.00,NNW,331,8.0,16.0,29,0.00,,,-99.99,69.000000,,2013-04-19 01:42:00,
2013-04-18 19:52:00,49.0,18.0,-100.00,NNW,331,8.0,16.0,29,0.00,,,-99.99,69.000000,,2013-04-19 01:52:00,
2013-04-18 20:21:00,47.0,20.0,-100.00,NW,324,6.0,12.0,34,0.00,,,0.01,14.000000,,2013-04-19 02:21:00,
2013-04-18 20:32:00,47.0,20.0,-100.00,NW,324,6.0,12.0,34,0.00,,,0.01,14.000000,,2013-04-19 02:32:00,
2013-04-18 20:42:00,47.0,20.0,-100.00,NW,324,6.0,12.0,34,0.00,,,0.01,14.000000,,2013-04-19 02:42:00,
2013-04-18 20:51:00,47.0,20.0,-100.00,NW,324,6.0,12.0,34,0.00,,,0.01,14.000000,,2013-04-19 02:51:00,
2013-04-18 21:32:00,45.0,23.0,-100.00,NW,321,5.0,17.0,41,0.00,,,0.01,0.000000,,2013-04-19 03:32:00,
2013-04-18 21:43:00,45.0,23.0,-100.00,NW,321,5.0,17.0,41,0.00,,,0.01,0.000000,,2013-04-19 03:43:00,
2013-04-18 21:53:00,45.0,23.0,-100.00,NW,321,5.0,17.0,41,0.00,,,0.01,0.000000,,2013-04-19 03:53:00,
2013-04-18 22:33:00,42.0,23.0,-100.00,SSE,157,2.0,6.0,46,0.00,,,0.01,0.000000,,2013-04-19 04:33:00,
2013-04-18 22:43:00,42.0,23.0,-100.00,SSE,157,2.0,6.0,46,0.00,,,0.01,0.000000,,2013-04-19 04:43:00,
2013-04-18 22:52:00,42.0,23.0,-100.00,SSE,157,2.0,6.0,46,0.00,,,0.01,0.000000,,2013-04-19 04:52:00,
2013-04-18 23:32:00,44.0,24.0,-100.00,WNW,286,5.0,8.0,45,0.00,,,0.01,0.000000,,2013-04-19 05:32:00,
2013-04-18 23:42:00,44.0,24.0,-100.00,WNW,286,5.0,8.0,45,0.00,,,0.01,0.000000,,2013-04-19 05:42:00,
2013-04-18 23:52:00,44.0,24.0,-100.00,WNW,286,5.0,8.0,45,0.00,,,0.01,0.000000,,2013-04-19 05:52:00,